createdAt,value
2023-03-07T00:01:57.640Z,93866.72
2023-03-07T00:04:24.231Z,93857.38
2023-03-07T00:06:50.961Z,93853.47
2023-03-07T00:09:17.534Z,93860.75
2023-03-07T00:11:44.418Z,93853.47
2023-03-07T00:14:11.333Z,93859.16
2023-03-07T00:16:37.961Z,93864.94
2023-03-07T00:19:05.207Z,93859.59
2023-03-07T00:21:32.546Z,93848.19
2023-03-07T00:23:59.224Z,93850.63
2023-03-07T00:26:27.064Z,93856.56
2023-03-07T00:28:55.017Z,93853.19
2023-03-07T00:31:23.042Z,93848.09
2023-03-07T00:33:49.728Z,93837.53
2023-03-07T00:36:19.599Z,93842.63
2023-03-07T00:38:46.704Z,93843.78
2023-03-07T00:41:19.541Z,93840.34
2023-03-07T00:43:47.182Z,93835.06
2023-03-07T00:46:14.952Z,93837.06
2023-03-07T00:48:41.581Z,93831.09
2023-03-07T00:51:10.143Z,93834.09
2023-03-07T00:53:37.499Z,93826.81
2023-03-07T00:56:05.858Z,93821.94
2023-03-07T00:58:35.724Z,93818.19
2023-03-07T01:01:04.912Z,93815.69
2023-03-07T01:03:32.495Z,93819.41
2023-03-07T01:06:03.016Z,93825.34
2023-03-07T01:08:30.580Z,93819.88
2023-03-07T01:11:02.315Z,93814.66
2023-03-07T01:13:30.247Z,93813.31
2023-03-07T01:16:26.725Z,93812.56
2023-03-07T01:18:56.315Z,93814.44
2023-03-07T01:21:24.694Z,93812.81
2023-03-07T01:23:52.136Z,93806.56
2023-03-07T01:26:30.344Z,93802.41
2023-03-07T01:28:59.622Z,93802.41
2023-03-07T01:31:27.187Z,93798.81
2023-03-07T01:33:54.149Z,93797.09
2023-03-07T01:36:30.543Z,93799.69
2023-03-07T01:39:17.029Z,93798.19
2023-03-07T01:41:54.746Z,93799.91
2023-03-07T01:44:26.220Z,93790.28
2023-03-07T01:47:00.879Z,93785.94
2023-03-07T01:49:47.872Z,93785.28
2023-03-07T01:52:30.246Z,93774.03
2023-03-07T01:55:05.349Z,93777.13
2023-03-07T01:57:35.846Z,93772.34
2023-03-07T02:00:08.616Z,93772.22
2023-03-07T02:02:42.834Z,93774.34
2023-03-07T02:05:17.850Z,93779.84
2023-03-07T02:07:50.207Z,93763.59
2023-03-07T02:10:23.035Z,93775.75
2023-03-07T02:12:51.903Z,93774.81
2023-03-07T02:15:18.769Z,93769.75
2023-03-07T02:17:46.613Z,93766.66
2023-03-07T02:20:50.846Z,93770.41
2023-03-07T02:23:33.730Z,93780.19
2023-03-07T02:26:11.172Z,93768.94
2023-03-07T02:28:40.071Z,93774.69
2023-03-07T02:31:08.383Z,93772.16
2023-03-07T02:33:36.916Z,93772.56
2023-03-07T02:36:30.844Z,93771.50
2023-03-07T02:39:15.468Z,93769.53
2023-03-07T02:41:43.055Z,93768.34
2023-03-07T02:44:18.480Z,93768.31
2023-03-07T02:46:45.283Z,93771.59
2023-03-07T02:49:11.958Z,93772.88
2023-03-07T02:51:39.254Z,93774.88
2023-03-07T02:54:06.151Z,93776.41
2023-03-07T02:56:32.877Z,93773.94
2023-03-07T02:58:59.447Z,93771.38
2023-03-07T03:01:26.150Z,93765.06
2023-03-07T03:03:53.145Z,93761.38
2023-03-07T03:06:19.759Z,93768.34
2023-03-07T03:08:46.618Z,93762.13
2023-03-07T03:11:13.290Z,93762.69
2023-03-07T03:13:40.147Z,93765.28
2023-03-07T03:16:07.514Z,93762.53
2023-03-07T03:18:34.184Z,93759.47
2023-03-07T03:21:06.608Z,93762.97
2023-03-07T03:23:33.378Z,93755.19
2023-03-07T03:26:02.202Z,93756.19
2023-03-07T03:28:31.593Z,93761.28
2023-03-07T03:31:04.860Z,93752.28
2023-03-07T03:33:32.338Z,93748.41
2023-03-07T03:36:00.862Z,93751.69
2023-03-07T03:38:27.498Z,93746.31
2023-03-07T03:40:55.781Z,93748.97
2023-03-07T03:43:25.845Z,93758.09
2023-03-07T03:45:56.889Z,93754.34
2023-03-07T03:48:25.917Z,93762.22
2023-03-07T03:51:07.323Z,93762.72
2023-03-07T03:53:36.590Z,93750.19
2023-03-07T03:56:03.128Z,93752.59
2023-03-07T03:58:30.631Z,93750.28
2023-03-07T04:00:57.659Z,93738.75
2023-03-07T04:03:24.248Z,93745.75
2023-03-07T04:05:51.052Z,93747.94
2023-03-07T04:08:17.642Z,93750.50
2023-03-07T04:10:44.376Z,93750.00
2023-03-07T04:13:11.172Z,93742.91
2023-03-07T04:15:38.024Z,93747.00
2023-03-07T04:18:04.595Z,93747.91
2023-03-07T04:20:31.300Z,93738.13
2023-03-07T04:22:57.989Z,93739.88
2023-03-07T04:25:24.659Z,93741.84
2023-03-07T04:27:51.365Z,93735.69
2023-03-07T04:30:18.205Z,93738.03
2023-03-07T04:32:44.997Z,93744.38
2023-03-07T04:35:11.901Z,93739.47
2023-03-07T04:37:38.625Z,93730.31
2023-03-07T04:40:05.979Z,93725.72
2023-03-07T04:42:32.782Z,93736.50
2023-03-07T04:44:59.787Z,93727.97
2023-03-07T04:47:26.555Z,93725.69
2023-03-07T04:49:53.921Z,93732.84
2023-03-07T04:52:20.910Z,93728.88
2023-03-07T04:54:47.557Z,93725.44
2023-03-07T04:57:14.789Z,93733.78
2023-03-07T04:59:42.048Z,93731.84
2023-03-07T05:02:12.527Z,93719.72
2023-03-07T05:04:39.623Z,93729.63
2023-03-07T05:07:06.550Z,93724.81
2023-03-07T05:09:33.516Z,93729.34
2023-03-07T05:12:00.301Z,93725.22
2023-03-07T05:14:27.190Z,93729.13
2023-03-07T05:16:54.083Z,93720.25
2023-03-07T05:19:20.677Z,93725.56
2023-03-07T05:21:49.223Z,93720.97
2023-03-07T05:24:16.609Z,93718.16
2023-03-07T05:26:43.456Z,93715.25
2023-03-07T05:29:10.198Z,93714.75
2023-03-07T05:31:36.906Z,93707.50
2023-03-07T05:34:06.269Z,93713.00
2023-03-07T05:36:33.362Z,93711.78
2023-03-07T05:39:00.320Z,93714.81
2023-03-07T05:41:27.117Z,93711.91
2023-03-07T05:43:55.493Z,93709.66
2023-03-07T05:46:23.172Z,93716.56
2023-03-07T05:48:50.011Z,93705.88
2023-03-07T05:51:16.944Z,93710.28
2023-03-07T05:53:43.641Z,93705.63
2023-03-07T05:56:10.504Z,93707.50
2023-03-07T05:58:37.940Z,93708.88
2023-03-07T06:01:05.370Z,93710.25
2023-03-07T06:03:33.142Z,93710.06
2023-03-07T06:05:59.784Z,93709.16
2023-03-07T06:08:26.612Z,93704.72
2023-03-07T06:10:54.752Z,93701.50
2023-03-07T06:13:24.276Z,93701.34
2023-03-07T06:15:55.108Z,93704.91
2023-03-07T06:18:23.130Z,93705.34
2023-03-07T06:21:01.526Z,93703.00
2023-03-07T06:23:33.824Z,93704.50
2023-03-07T06:26:01.149Z,93705.34
2023-03-07T06:28:28.390Z,93702.66
2023-03-07T06:30:55.398Z,93702.78
2023-03-07T06:33:22.976Z,93699.03
2023-03-07T06:35:49.838Z,93697.72
2023-03-07T06:38:17.680Z,93693.56
2023-03-07T06:40:44.981Z,93702.28
2023-03-07T06:43:14.910Z,93706.91
2023-03-07T06:45:41.922Z,93709.31
2023-03-07T06:48:09.528Z,93706.97
2023-03-07T06:50:38.175Z,93710.13
2023-03-07T06:53:05.152Z,93710.28
2023-03-07T06:55:31.744Z,93706.66
2023-03-07T06:57:58.432Z,93708.75
2023-03-07T07:00:25.551Z,93712.38
2023-03-07T07:02:52.607Z,93706.81
2023-03-07T07:05:20.121Z,93708.41
2023-03-07T07:07:46.994Z,93708.03
2023-03-07T07:10:14.211Z,93707.06
2023-03-07T07:12:40.900Z,93706.41
2023-03-07T07:15:08.779Z,93703.75
2023-03-07T07:17:41.654Z,93704.16
2023-03-07T07:20:11.258Z,93702.69
2023-03-07T07:22:39.807Z,93698.81
2023-03-07T07:25:06.735Z,93693.03
2023-03-07T07:27:33.380Z,93692.38
2023-03-07T07:30:00.823Z,93688.19
2023-03-07T07:32:27.634Z,93686.59
2023-03-07T07:34:54.499Z,93679.78
2023-03-07T07:37:21.417Z,93681.06
2023-03-07T07:39:51.962Z,93682.03
2023-03-07T07:42:18.749Z,93681.63
2023-03-07T07:44:57.835Z,93684.25
2023-03-07T07:47:25.058Z,93675.00
2023-03-07T07:49:51.654Z,93680.31
2023-03-07T07:52:18.543Z,93679.72
2023-03-07T07:54:45.439Z,93683.66
2023-03-07T07:57:12.625Z,93681.81
2023-03-07T07:59:39.391Z,93684.44
2023-03-07T08:02:07.574Z,93685.19
2023-03-07T08:04:35.658Z,93685.75
2023-03-07T08:07:02.355Z,93675.25
2023-03-07T08:09:29.367Z,93684.09
2023-03-07T08:11:55.890Z,93686.59
2023-03-07T08:14:22.683Z,93673.50
2023-03-07T08:16:49.525Z,93674.75
2023-03-07T08:19:16.377Z,93686.19
2023-03-07T08:21:43.156Z,93679.75
2023-03-07T08:24:09.797Z,93675.38
2023-03-07T08:26:36.312Z,93674.56
2023-03-07T08:29:03.565Z,93671.38
2023-03-07T08:31:30.286Z,93666.34
2023-03-07T08:33:56.821Z,93662.88
2023-03-07T08:36:23.624Z,93661.25
2023-03-07T08:38:52.208Z,93658.97
2023-03-07T08:41:20.844Z,93661.28
2023-03-07T08:43:47.914Z,93663.72
2023-03-07T08:46:16.695Z,93659.69
2023-03-07T08:48:43.987Z,93654.75
2023-03-07T08:51:15.824Z,93663.78
2023-03-07T08:53:46.354Z,93654.59
2023-03-07T08:56:19.716Z,93660.97
2023-03-07T08:58:46.759Z,93659.63
2023-03-07T09:01:13.433Z,93657.97
2023-03-07T09:03:40.346Z,93648.34
2023-03-07T09:06:07.024Z,93654.59
2023-03-07T09:08:33.761Z,93652.38
2023-03-07T09:11:03.598Z,93650.59
2023-03-07T09:13:31.262Z,93656.06
2023-03-07T09:15:58.781Z,93650.75
2023-03-07T09:18:25.479Z,93648.69
2023-03-07T09:20:52.189Z,93641.47
2023-03-07T09:23:19.124Z,93640.31
2023-03-07T09:25:45.710Z,93638.50
2023-03-07T09:28:12.364Z,93629.34
2023-03-07T09:30:38.988Z,93624.53
2023-03-07T09:33:05.646Z,93623.88
2023-03-07T09:35:32.464Z,93611.81
2023-03-07T09:37:59.319Z,93615.19
2023-03-07T09:40:27.753Z,93609.88
2023-03-07T09:42:57.378Z,93613.97
2023-03-07T09:45:38.768Z,93621.72
2023-03-07T09:48:47.124Z,93608.69
2023-03-07T09:51:21.625Z,93610.91
2023-03-07T09:54:00.635Z,93612.06
2023-03-07T09:56:33.209Z,93611.88
2023-03-07T09:59:21.783Z,93608.94
2023-03-07T10:01:58.923Z,93608.94
2023-03-07T10:04:39.928Z,93609.16
2023-03-07T10:07:11.197Z,93599.50
2023-03-07T10:09:38.950Z,93588.47
2023-03-07T10:12:18.415Z,93583.94
2023-03-07T10:14:51.188Z,93584.72
2023-03-07T10:17:27.034Z,93578.16
2023-03-07T10:20:06.363Z,93576.94
2023-03-07T10:22:52.114Z,93567.88
2023-03-07T10:25:41.082Z,93563.34
2023-03-07T10:28:21.801Z,93558.66
2023-03-07T10:30:52.179Z,93559.44
2023-03-07T10:33:20.027Z,93563.69
2023-03-07T10:36:07.273Z,93554.47
2023-03-07T10:38:40.026Z,93544.50
2023-03-07T10:41:21.056Z,93546.75
2023-03-07T10:43:49.808Z,93541.22
2023-03-07T10:46:25.746Z,93528.75
2023-03-07T10:49:10.426Z,93530.84
2023-03-07T10:51:48.707Z,93532.56
2023-03-07T10:54:18.928Z,93544.41
2023-03-07T10:57:04.057Z,93519.88
2023-03-07T10:59:30.790Z,93515.97
2023-03-07T11:01:59.309Z,93513.25
2023-03-07T11:04:28.895Z,93509.75
2023-03-07T11:07:00.726Z,93514.09
2023-03-07T11:09:46.840Z,93514.91
2023-03-07T11:12:19.978Z,93504.25
2023-03-07T11:14:51.643Z,93498.41
2023-03-07T11:17:22.524Z,93495.06
2023-03-07T11:19:55.828Z,93492.38
2023-03-07T11:22:38.922Z,93479.72
2023-03-07T11:25:26.677Z,93474.97
2023-03-07T11:27:56.069Z,93472.69
2023-03-07T11:30:45.385Z,93477.75
2023-03-07T11:33:24.291Z,93473.97
2023-03-07T11:36:12.741Z,93468.25
2023-03-07T11:38:51.526Z,93470.38
2023-03-07T11:41:21.022Z,93454.44
2023-03-07T11:43:56.384Z,93454.03
2023-03-07T11:46:43.802Z,93445.19
2023-03-07T11:49:35.876Z,93447.25
2023-03-07T11:52:22.078Z,93438.94
2023-03-07T11:55:00.814Z,93436.50
2023-03-07T11:57:46.615Z,93438.19
2023-03-07T12:00:37.964Z,93422.91
2023-03-07T12:03:19.703Z,93421.75
2023-03-07T12:06:02.103Z,93428.97
2023-03-07T12:08:47.499Z,93415.25
2023-03-07T12:11:40.277Z,93411.25
2023-03-07T12:14:28.918Z,93408.88
2023-03-07T12:17:32.890Z,93395.75
2023-03-07T12:20:31.104Z,93396.47
2023-03-07T12:23:22.351Z,93399.22
2023-03-07T12:25:53.834Z,93394.56
2023-03-07T12:28:23.714Z,93399.06
2023-03-07T12:31:00.811Z,93391.56
2023-03-07T12:33:51.853Z,93388.88
2023-03-07T12:36:32.057Z,93398.69
2023-03-07T12:39:33.669Z,93384.34
2023-03-07T12:42:12.490Z,93395.50
2023-03-07T12:45:07.355Z,93393.25
2023-03-07T12:47:52.979Z,93388.75
2023-03-07T12:50:37.574Z,93377.94
2023-03-07T12:53:35.657Z,93383.56
2023-03-07T12:56:12.297Z,93381.97
2023-03-07T12:58:59.410Z,93375.00
2023-03-07T13:01:39.114Z,93369.59
2023-03-07T13:04:05.915Z,93363.81
2023-03-07T13:06:34.223Z,93366.56
2023-03-07T13:09:04.076Z,93361.69
2023-03-07T13:11:34.080Z,93367.56
2023-03-07T13:14:05.512Z,93366.50
2023-03-07T13:16:46.437Z,93360.88
2023-03-07T13:19:31.446Z,93359.06
2023-03-07T13:21:58.441Z,93354.78
2023-03-07T13:24:37.411Z,93350.88
2023-03-07T13:27:27.535Z,93353.94
2023-03-07T13:30:06.271Z,93333.13
2023-03-07T13:32:51.412Z,93337.00
2023-03-07T13:35:39.344Z,93327.00
2023-03-07T13:38:15.117Z,93332.38
2023-03-07T13:40:45.090Z,93327.13
2023-03-07T13:43:26.325Z,93319.81
2023-03-07T13:46:00.348Z,93329.75
2023-03-07T13:48:27.692Z,93320.63
2023-03-07T13:50:54.232Z,93319.19
2023-03-07T13:53:39.578Z,93317.91
2023-03-07T13:56:15.268Z,93316.59
2023-03-07T13:59:06.341Z,93320.50
2023-03-07T14:01:44.217Z,93309.31
2023-03-07T14:04:46.047Z,93313.19
2023-03-07T14:07:41.232Z,93299.25
2023-03-07T14:10:23.331Z,93311.53
2023-03-07T14:13:01.094Z,93297.59
2023-03-07T14:15:47.881Z,93298.69
2023-03-07T14:18:17.382Z,93294.13
2023-03-07T14:20:53.192Z,93296.56
2023-03-07T14:23:58.199Z,93291.25
2023-03-07T14:26:33.549Z,93297.03
2023-03-07T14:29:22.226Z,93289.88
2023-03-07T14:31:54.633Z,93295.97
2023-03-07T14:34:21.631Z,93292.00
2023-03-07T14:36:52.497Z,93297.81
2023-03-07T14:39:20.557Z,93296.03
2023-03-07T14:42:06.141Z,93287.91
2023-03-07T14:44:44.909Z,93290.91
2023-03-07T14:47:40.260Z,93296.28
2023-03-07T14:50:07.169Z,93288.75
2023-03-07T14:52:34.636Z,93291.78
2023-03-07T14:55:05.675Z,93282.72
2023-03-07T14:57:38.080Z,93291.44
2023-03-07T15:00:08.180Z,93288.88
2023-03-07T15:02:34.885Z,93301.34
2023-03-07T15:05:02.073Z,93301.53
2023-03-07T15:07:28.726Z,93303.38
2023-03-07T15:09:55.454Z,93311.13
2023-03-07T15:12:27.493Z,93319.94
2023-03-07T15:14:59.159Z,93310.28
2023-03-07T15:17:28.997Z,93317.22
2023-03-07T15:20:01.029Z,93320.09
2023-03-07T15:22:39.330Z,93314.75
2023-03-07T15:25:16.736Z,93313.38
2023-03-07T15:27:43.521Z,93316.53
2023-03-07T15:30:23.787Z,93316.00
2023-03-07T15:33:23.192Z,93306.41
2023-03-07T15:36:12.913Z,93310.03
2023-03-07T15:38:44.333Z,93305.63
2023-03-07T15:41:31.654Z,93308.59
2023-03-07T15:44:13.587Z,93305.44
2023-03-07T15:46:44.315Z,93303.41
2023-03-07T15:49:42.469Z,93309.75
2023-03-07T15:52:30.591Z,93315.53
2023-03-07T15:54:59.779Z,93322.06
2023-03-07T15:57:38.388Z,93324.69
2023-03-07T16:00:18.271Z,93336.44
2023-03-07T16:02:52.902Z,93331.50
2023-03-07T16:05:24.310Z,93336.66
2023-03-07T16:07:53.394Z,93329.16
2023-03-07T16:10:21.587Z,93337.03
2023-03-07T16:12:51.611Z,93338.84
2023-03-07T16:15:21.297Z,93337.25
2023-03-07T16:17:53.235Z,93345.81
2023-03-07T16:20:22.447Z,93350.97
2023-03-07T16:22:49.201Z,93346.03
2023-03-07T16:25:16.958Z,93346.97
2023-03-07T16:27:49.486Z,93353.81
2023-03-07T16:30:21.195Z,93352.09
2023-03-07T16:32:47.902Z,93353.06
2023-03-07T16:35:28.587Z,93357.13
2023-03-07T16:37:56.046Z,93355.88
2023-03-07T16:40:23.512Z,93368.59
2023-03-07T16:42:50.779Z,93360.13
2023-03-07T16:45:30.267Z,93363.03
2023-03-07T16:47:59.058Z,93357.00
2023-03-07T16:50:29.490Z,93363.03
2023-03-07T16:52:56.288Z,93363.69
2023-03-07T16:55:23.655Z,93361.63
2023-03-07T16:57:54.597Z,93353.66
2023-03-07T17:00:24.101Z,93352.53
2023-03-07T17:02:53.199Z,93345.66
2023-03-07T17:05:25.604Z,93357.00
2023-03-07T17:07:56.872Z,93353.97
2023-03-07T17:10:26.416Z,93363.53
2023-03-07T17:12:55.157Z,93369.44
2023-03-07T17:15:30.662Z,93374.38
2023-03-07T17:17:58.741Z,93377.03
2023-03-07T17:20:25.528Z,93383.50
2023-03-07T17:22:53.628Z,93385.63
2023-03-07T17:25:21.529Z,93391.34
2023-03-07T17:28:04.398Z,93392.88
2023-03-07T17:30:33.147Z,93399.16
2023-03-07T17:33:00.947Z,93397.38
2023-03-07T17:35:30.976Z,93399.97
2023-03-07T17:37:57.869Z,93397.00
2023-03-07T17:40:24.454Z,93408.97
2023-03-07T17:42:52.082Z,93414.84
2023-03-07T17:45:21.538Z,93421.53
2023-03-07T17:47:54.183Z,93424.28
2023-03-07T17:50:25.739Z,93426.41
2023-03-07T17:52:54.662Z,93432.38
2023-03-07T17:55:24.926Z,93436.19
2023-03-07T17:57:52.254Z,93442.97
2023-03-07T18:00:21.018Z,93442.56
2023-03-07T18:02:48.494Z,93457.81
2023-03-07T18:05:15.128Z,93457.31
2023-03-07T18:07:42.013Z,93464.28
2023-03-07T18:10:10.112Z,93468.50
2023-03-07T18:12:39.049Z,93477.09
2023-03-07T18:15:29.628Z,93478.72
2023-03-07T18:18:06.862Z,93474.84
2023-03-07T18:20:36.082Z,93470.91
2023-03-07T18:23:02.843Z,93474.94
2023-03-07T18:25:29.823Z,93476.72
2023-03-07T18:27:56.504Z,93470.59
2023-03-07T18:30:23.168Z,93467.16
2023-03-07T18:32:49.915Z,93473.91
2023-03-07T18:35:16.743Z,93463.09
2023-03-07T18:37:45.091Z,93459.38
2023-03-07T18:40:13.082Z,93470.94
2023-03-07T18:42:40.419Z,93468.56
2023-03-07T18:45:07.662Z,93469.22
2023-03-07T18:47:34.181Z,93473.88
2023-03-07T18:50:00.954Z,93482.34
2023-03-07T18:52:27.585Z,93481.53
2023-03-07T18:54:54.540Z,93488.63
2023-03-07T18:57:21.232Z,93490.78
2023-03-07T18:59:47.890Z,93489.19
2023-03-07T19:02:14.600Z,93501.38
2023-03-07T19:04:41.482Z,93507.69
2023-03-07T19:07:08.278Z,93499.16
2023-03-07T19:09:34.933Z,93502.22
2023-03-07T19:12:01.613Z,93501.69
2023-03-07T19:14:28.359Z,93500.50
2023-03-07T19:16:54.958Z,93500.75
2023-03-07T19:19:21.661Z,93503.13
2023-03-07T19:21:48.365Z,93507.44
2023-03-07T19:24:15.054Z,93506.34
2023-03-07T19:26:43.446Z,93513.59
2023-03-07T19:29:12.099Z,93509.44
2023-03-07T19:31:38.888Z,93518.66
2023-03-07T19:34:06.498Z,93518.78
2023-03-07T19:36:35.337Z,93523.88
2023-03-07T19:39:02.261Z,93528.44
2023-03-07T19:41:31.345Z,93527.25
2023-03-07T19:43:59.708Z,93537.78
2023-03-07T19:46:26.727Z,93539.13
2023-03-07T19:48:53.480Z,93549.88
2023-03-07T19:51:24.046Z,93560.03
2023-03-07T19:53:50.930Z,93563.09
2023-03-07T19:56:29.833Z,93559.91
2023-03-07T19:58:58.406Z,93562.28
2023-03-07T20:01:26.202Z,93564.19
2023-03-07T20:03:54.030Z,93562.31
2023-03-07T20:06:23.195Z,93567.97
2023-03-07T20:08:51.483Z,93568.06
2023-03-07T20:11:21.474Z,93565.38
2023-03-07T20:13:49.066Z,93573.56
2023-03-07T20:16:18.585Z,93565.94
2023-03-07T20:18:52.385Z,93563.63
2023-03-07T20:21:21.191Z,93565.78
2023-03-07T20:23:48.907Z,93574.19
2023-03-07T20:26:19.982Z,93572.59
2023-03-07T20:28:46.732Z,93572.72
2023-03-07T20:31:13.684Z,93572.44
2023-03-07T20:33:46.037Z,93574.19
2023-03-07T20:36:18.568Z,93577.81
2023-03-07T20:38:52.381Z,93578.19
2023-03-07T20:41:21.115Z,93583.50
2023-03-07T20:43:49.034Z,93587.78
2023-03-07T20:46:18.012Z,93600.91
2023-03-07T20:48:45.505Z,93612.03
2023-03-07T20:51:23.684Z,93613.19
2023-03-07T20:54:14.550Z,93607.56
2023-03-07T20:56:41.858Z,93607.72
2023-03-07T20:59:12.087Z,93608.69
2023-03-07T21:01:39.106Z,93607.50
2023-03-07T21:04:11.932Z,93615.56
2023-03-07T21:06:40.773Z,93610.69
2023-03-07T21:09:10.093Z,93607.47
2023-03-07T21:11:38.587Z,93605.13
2023-03-07T21:14:05.726Z,93604.13
2023-03-07T21:16:32.685Z,93604.44
2023-03-07T21:19:01.825Z,93609.59
2023-03-07T21:21:29.917Z,93618.81
2023-03-07T21:23:56.830Z,93605.84
2023-03-07T21:26:29.378Z,93610.06
2023-03-07T21:28:57.418Z,93613.84
2023-03-07T21:31:25.525Z,93609.69
2023-03-07T21:33:54.880Z,93619.56
2023-03-07T21:36:23.327Z,93610.50
2023-03-07T21:38:50.258Z,93615.50
2023-03-07T21:41:19.115Z,93614.66
2023-03-07T21:43:45.991Z,93627.91
2023-03-07T21:46:13.751Z,93636.28
2023-03-07T21:48:41.074Z,93641.38
2023-03-07T21:51:08.975Z,93645.34
2023-03-07T21:53:35.965Z,93649.66
2023-03-07T21:56:05.600Z,93644.19
2023-03-07T21:58:33.069Z,93648.78
2023-03-07T22:00:59.885Z,93643.53
2023-03-07T22:03:28.938Z,93650.47
2023-03-07T22:05:57.385Z,93653.78
2023-03-07T22:08:24.371Z,93659.03
2023-03-07T22:11:00.072Z,93644.19
2023-03-07T22:13:28.202Z,93651.63
2023-03-07T22:16:03.449Z,93652.66
2023-03-07T22:18:30.549Z,93654.69
2023-03-07T22:20:57.385Z,93659.28
2023-03-07T22:23:26.427Z,93657.69
2023-03-07T22:25:53.733Z,93665.78
2023-03-07T22:28:20.644Z,93659.66
2023-03-07T22:30:49.346Z,93664.44
2023-03-07T22:33:16.712Z,93678.88
2023-03-07T22:35:43.334Z,93674.09
2023-03-07T22:38:09.877Z,93674.44
2023-03-07T22:40:39.461Z,93681.69
2023-03-07T22:43:06.217Z,93680.22
2023-03-07T22:45:32.886Z,93686.19
2023-03-07T22:47:59.559Z,93681.91
2023-03-07T22:50:26.291Z,93691.31
2023-03-07T22:52:54.929Z,93687.47
2023-03-07T22:55:22.047Z,93678.13
2023-03-07T22:57:49.041Z,93689.09
2023-03-07T23:00:15.981Z,93684.56
2023-03-07T23:02:43.076Z,93677.47
2023-03-07T23:05:10.091Z,93688.81
2023-03-07T23:07:36.756Z,93697.59
2023-03-07T23:10:03.780Z,93695.81
2023-03-07T23:12:30.629Z,93689.06
2023-03-07T23:14:57.522Z,93690.59
2023-03-07T23:17:24.519Z,93691.84
2023-03-07T23:19:52.033Z,93694.03
2023-03-07T23:22:18.945Z,93694.31
2023-03-07T23:24:45.548Z,93695.28
2023-03-07T23:27:12.108Z,93716.50
2023-03-07T23:29:38.840Z,93708.78
2023-03-07T23:32:58.119Z,93699.50
2023-03-07T23:35:24.760Z,93704.38
2023-03-07T23:37:51.298Z,93711.25
2023-03-07T23:40:18.441Z,93707.34
2023-03-07T23:42:45.037Z,93712.97
2023-03-07T23:45:11.799Z,93719.69
2023-03-07T23:47:39.626Z,93714.13
2023-03-07T23:50:07.950Z,93722.72
2023-03-07T23:52:34.711Z,93723.75
2023-03-07T23:55:01.419Z,93715.72
2023-03-07T23:57:27.991Z,93721.22
2023-03-07T23:59:54.674Z,93723.06
